Terminal Aerodrome Forecast
Issued by NWS Mt. Holly, NJ

Current Version | Previous Version | Text Only | Print | Product List | Glossary On
Versions: 1 2 3 4 5 6 7 8 9 10 11 12 13 14 15 16 17 18 19 20 21 22 23 24 25 26 27 28 29 30 31 32 33
000
FTUS41 KPHI 270900 AAA
TAFPHL
TAF AMD
KPHL 270900Z 2709/2812 33010G18KT P6SM SCT015 OVC080
      TEMPO 2709/2711 4SM -RA BR OVC015
     FM271100 35010KT P6SM SCT025 BKN080
      TEMPO 2711/2714 -RA OVC025
     FM271400 33010G18KT P6SM BKN045
     FM280000 34010KT P6SM SCT045 BKN100=

USA.gov is the U.S. government's official web portal to all federal, state and local government web resources and services.